Osborn, Mississippi
Current Conditions -  °F | °C
As of 4:15 PM on Tuesday 25 Nov 2014 (Local Time) from KSTF Reporting Station
Clear Clear  
Wind Chill: 46°   Ceiling: Unl
Heat Index: 46°   Visibility: NA
Dew Point: 32°   Wind: 0mph
Humidity: 57%   Direction: NA
Pressure: 30.15"   Gusts: NA
Location:  33.4256°N, 88.8438°W
Report Text: KSTF 252215Z AUTO 00000KT CLR 08/00 A3015 RMK AO2 PWINO
Loading
Personal Weather Stations






























Interactive Weather Map New forecast layout! Learn more

10-Day Weather Forecast

Advertisements
Track Severe Weather on mobile